Weather at Sullivan Airport

Public forecast

Using degrees Fahrenheit for public forecast. Weather courtesy of forecast.io.

Closest aviation weather report (METAR) to Sullivan Airport

Closest report is Watertown Municipal Airport, 11.1 nm (20.5 km) NNW. Retrieved 2021/06/23 02:35 UTC (9 minutes ago):

KRYV 230235Z AUTO 12003KT 10SM BKN070 OVC090 16/11 A2995 RMK AO2 T01560107

Closest aviation forecast (TAF) to Sullivan Airport

Closest forecast is Waukesha County Airport, 16.2 nm (29.9 km) E. Retrieved 2021-06-23 00:33 UTC (2 hours ago):

TAF KUES 222330Z 2300/2324 VRB05KT P6SM BKN070 TEMPO 2300/2304 21005KT SCT070 FM230500 17005KT P6SM VCSH BKN070 FM231200 19007KT P6SM VCSH BKN040 TEMPO 2313/2316 5SM -SHRA BKN030 FM231700 21011G22KT P6SM BKN050